Time;durP1;ratioP1;P1;durP2;ratioP2;P2;SDS_P1;SDS_P2;PMS_P1;PMS_P2;Temp;Humidity;BMP_temperature;BMP_pressure;BME280_temperature;BME280_humidity;BME280_pressure;Samples;Min_cycle;Max_cycle;Signal;HPM_P1;HPM_P2
2023/03/06 00:00:49;;;;;;;22.17;11.20;;;0.80;99.90;;;;;;5072548;28;20220;-71
2023/03/06 00:03:15;;;;;;;18.37;10.73;;;0.80;99.90;;;;;;5072594;28;20225;-71
2023/03/06 00:05:43;;;;;;;18.20;10.93;;;0.80;99.90;;;;;;5072500;28;20239;-71
2023/03/06 00:08:10;;;;;;;18.30;10.83;;;0.80;99.90;;;;;;5072095;28;20720;-71
2023/03/06 00:10:37;;;;;;;20.07;10.80;;;0.90;99.90;;;;;;5073931;28;20209;-72
2023/03/06 00:13:07;;;;;;;17.33;10.07;;;0.90;99.90;;;;;;5076134;28;20200;-70
2023/03/06 00:15:34;;;;;;;21.63;10.77;;;0.90;99.90;;;;;;5076336;28;20229;-70
2023/03/06 00:18:03;;;;;;;22.30;10.70;;;0.80;99.90;;;;;;5076283;28;20228;-71
2023/03/06 00:20:30;;;;;;;20.53;10.67;;;0.80;99.90;;;;;;5076180;28;20225;-71
2023/03/06 00:22:58;;;;;;;18.10;11.03;;;0.80;99.90;;;;;;5076097;28;20248;-70
2023/03/06 00:25:25;;;;;;;19.40;10.83;;;0.80;99.90;;;;;;5075876;28;20303;-71
2023/03/06 00:27:52;;;;;;;18.67;11.00;;;0.80;99.90;;;;;;5075986;28;20603;-71
2023/03/06 00:30:20;;;;;;;15.53;10.17;;;0.70;99.90;;;;;;5076100;28;20228;-71
2023/03/06 00:32:48;;;;;;;17.37;10.77;;;0.70;99.90;;;;;;5075965;28;20193;-71
2023/03/06 00:35:15;;;;;;;19.30;10.87;;;0.70;99.90;;;;;;5075863;28;20228;-71
2023/03/06 00:37:42;;;;;;;19.43;10.70;;;0.70;99.90;;;;;;5075774;28;20661;-71
2023/03/06 00:40:13;;;;;;;20.47;11.80;;;0.70;99.90;;;;;;5075483;28;20275;-71
2023/03/06 00:42:40;;;;;;;18.80;11.77;;;0.70;99.90;;;;;;5075857;28;20232;-70
2023/03/06 00:45:08;;;;;;;20.90;11.17;;;0.80;99.90;;;;;;5075700;28;20197;-71
2023/03/06 00:47:34;;;;;;;21.03;11.57;;;0.70;99.90;;;;;;5075557;28;20692;-70
2023/03/06 00:50:01;;;;;;;22.60;12.50;;;0.70;99.90;;;;;;5075643;28;20233;-70
2023/03/06 00:52:27;;;;;;;20.93;11.43;;;0.80;99.90;;;;;;5075463;28;20262;-70
2023/03/06 00:54:54;;;;;;;20.57;12.20;;;0.80;99.90;;;;;;5075948;28;20232;-69
2023/03/06 00:57:22;;;;;;;24.53;12.47;;;0.70;99.90;;;;;;5075333;28;20660;-69
2023/03/06 00:59:49;;;;;;;20.80;12.43;;;0.70;99.90;;;;;;5075473;28;20232;-69
2023/03/06 01:02:15;;;;;;;28.57;14.07;;;0.70;99.90;;;;;;5075422;28;20229;-69
2023/03/06 01:04:42;;;;;;;20.27;11.90;;;0.70;99.90;;;;;;5075336;28;20248;-70
2023/03/06 01:07:09;;;;;;;24.80;12.67;;;0.70;99.90;;;;;;5074991;28;20232;-71
2023/03/06 01:09:35;;;;;;;23.23;12.30;;;0.70;99.90;;;;;;5075430;28;20198;-71
2023/03/06 01:12:02;;;;;;;22.87;12.80;;;0.70;99.90;;;;;;5075413;28;20429;-69
2023/03/06 01:14:30;;;;;;;21.27;11.77;;;0.70;99.90;;;;;;5075065;28;20691;-69
2023/03/06 01:16:57;;;;;;;22.60;12.57;;;0.70;99.90;;;;;;5075246;28;20201;-70
2023/03/06 01:19:24;;;;;;;24.17;12.30;;;0.70;99.90;;;;;;5075093;28;20236;-69
2023/03/06 01:21:51;;;;;;;24.70;13.13;;;0.70;99.90;;;;;;5073960;28;20252;-69
2023/03/06 01:24:17;;;;;;;22.83;14.03;;;0.70;99.90;;;;;;5075301;28;20225;-70
2023/03/06 01:26:44;;;;;;;24.70;12.93;;;0.70;99.90;;;;;;5075120;28;20229;-70
2023/03/06 01:29:10;;;;;;;22.87;13.30;;;0.60;99.90;;;;;;5074963;28;20691;-70
2023/03/06 01:31:39;;;;;;;22.90;13.57;;;0.60;99.90;;;;;;5074976;28;20205;-70
2023/03/06 01:34:05;;;;;;;24.77;14.30;;;0.60;99.90;;;;;;5074770;28;20233;-70
2023/03/06 01:36:32;;;;;;;26.60;13.63;;;0.60;99.90;;;;;;5075230;28;20232;-70
2023/03/06 01:38:58;;;;;;;22.00;13.43;;;0.60;99.90;;;;;;5074879;28;20228;-70
2023/03/06 01:41:25;;;;;;;27.10;14.00;;;0.60;99.90;;;;;;5074732;28;20711;-70
2023/03/06 01:43:51;;;;;;;22.17;13.63;;;0.60;99.90;;;;;;5074637;28;20193;-70
2023/03/06 01:46:28;;;;;;;25.80;14.10;;;0.60;99.90;;;;;;5074616;28;20242;-70
2023/03/06 01:48:58;;;;;;;26.43;14.70;;;0.60;99.90;;;;;;5074538;28;20625;-69
2023/03/06 01:51:29;;;;;;;23.97;13.67;;;0.70;99.90;;;;;;5074387;28;20682;-69
2023/03/06 01:53:57;;;;;;;23.67;13.27;;;0.60;99.90;;;;;;5074745;28;20255;-69
2023/03/06 01:56:25;;;;;;;25.37;14.27;;;0.60;99.90;;;;;;5074414;28;20229;-70
2023/03/06 01:58:52;;;;;;;22.37;13.60;;;0.60;99.90;;;;;;5074328;28;20227;-69
2023/03/06 02:01:19;;;;;;;24.47;12.93;;;0.60;99.90;;;;;;5074155;28;20248;-70
2023/03/06 02:03:48;;;;;;;23.80;14.47;;;0.60;99.90;;;;;;5074505;28;20318;-70
2023/03/06 02:06:18;;;;;;;26.03;14.13;;;0.60;99.90;;;;;;5074112;28;20739;-70
2023/03/06 02:08:46;;;;;;;27.53;15.03;;;0.60;99.90;;;;;;5074090;28;20233;-69
2023/03/06 02:11:16;;;;;;;28.17;14.57;;;0.60;99.90;;;;;;5074229;28;20238;-70
2023/03/06 02:13:44;;;;;;;25.97;15.00;;;0.60;99.90;;;;;;5074017;28;20224;-70
2023/03/06 02:16:12;;;;;;;26.33;14.00;;;0.60;99.90;;;;;;5074294;28;20231;-70
2023/03/06 02:18:41;;;;;;;26.83;14.63;;;0.60;99.90;;;;;;5074079;28;20201;-70
2023/03/06 02:21:10;;;;;;;31.13;15.43;;;0.60;99.90;;;;;;5073848;28;20267;-69
2023/03/06 02:23:45;;;;;;;28.13;15.87;;;0.60;99.90;;;;;;5073774;28;20223;-69
2023/03/06 02:26:14;;;;;;;27.67;14.93;;;0.60;99.90;;;;;;5073899;28;20623;-69
2023/03/06 02:28:41;;;;;;;30.93;16.57;;;0.60;99.90;;;;;;5073926;28;20228;-69
2023/03/06 02:31:16;;;;;;;26.83;15.00;;;0.50;99.90;;;;;;5073808;28;20224;-70
2023/03/06 02:33:43;;;;;;;28.63;15.73;;;0.50;99.90;;;;;;5073642;28;20232;-70
2023/03/06 02:36:14;;;;;;;27.27;15.40;;;0.50;99.90;;;;;;5073700;28;20232;-70
2023/03/06 02:38:46;;;;;;;26.27;14.60;;;0.40;99.90;;;;;;5073593;28;20229;-70
2023/03/06 02:41:15;;;;;;;23.90;14.23;;;0.50;99.90;;;;;;5073705;28;20278;-69
2023/03/06 02:43:45;;;;;;;25.37;14.43;;;0.40;99.90;;;;;;5073468;28;20640;-70
2023/03/06 02:46:11;;;;;;;25.17;14.57;;;0.40;99.90;;;;;;5073528;28;20233;-70
2023/03/06 02:48:38;;;;;;;29.07;15.03;;;0.40;99.90;;;;;;5073473;28;20228;-70
2023/03/06 02:51:05;;;;;;;29.13;15.80;;;0.40;99.90;;;;;;5073317;28;20205;-70
2023/03/06 02:53:31;;;;;;;26.20;16.03;;;0.40;99.90;;;;;;5073227;28;20243;-70
2023/03/06 02:55:58;;;;;;;34.13;16.57;;;0.60;99.90;;;;;;5073437;28;20233;-70
2023/03/06 02:58:26;;;;;;;26.63;16.53;;;0.60;99.90;;;;;;5073361;28;20201;-70
2023/03/06 03:00:53;;;;;;;26.37;16.20;;;0.70;99.90;;;;;;5073211;28;20248;-70
2023/03/06 03:03:19;;;;;;;26.70;16.87;;;0.60;99.90;;;;;;5073237;28;20197;-70
2023/03/06 03:05:46;;;;;;;28.03;15.50;;;0.70;99.90;;;;;;5073094;28;20259;-70
2023/03/06 03:08:13;;;;;;;30.00;16.90;;;0.70;99.90;;;;;;5072892;28;20719;-71
2023/03/06 03:10:39;;;;;;;30.70;16.10;;;0.70;99.90;;;;;;5073249;28;20237;-71
2023/03/06 03:13:06;;;;;;;27.67;15.67;;;0.70;99.90;;;;;;5073158;28;20236;-70
2023/03/06 03:15:34;;;;;;;28.87;16.27;;;0.70;99.90;;;;;;5073066;28;20228;-71
2023/03/06 03:18:00;;;;;;;28.10;15.53;;;0.70;99.90;;;;;;5073060;28;20244;-69
2023/03/06 03:20:27;;;;;;;27.63;15.80;;;0.70;99.90;;;;;;5072860;28;20290;-69
2023/03/06 03:22:55;;;;;;;30.20;16.40;;;0.70;99.90;;;;;;5073143;28;20252;-68
2023/03/06 03:25:23;;;;;;;30.23;16.37;;;0.70;99.90;;;;;;5073091;28;20269;-69
2023/03/06 03:27:50;;;;;;;30.70;16.17;;;0.70;99.90;;;;;;5072960;28;20229;-69
2023/03/06 03:30:17;;;;;;;31.70;17.57;;;0.70;99.90;;;;;;5073022;28;20600;-70
2023/03/06 03:32:45;;;;;;;29.23;16.13;;;0.70;99.90;;;;;;5073067;28;20248;-69
2023/03/06 03:35:11;;;;;;;30.90;18.40;;;0.70;99.90;;;;;;5072976;28;20232;-69
2023/03/06 03:37:38;;;;;;;29.47;17.67;;;0.70;99.90;;;;;;5072945;28;20258;-69
2023/03/06 03:40:06;;;;;;;31.83;17.07;;;0.70;99.90;;;;;;5072801;28;20228;-69
2023/03/06 03:42:34;;;;;;;33.30;18.10;;;0.70;99.90;;;;;;5072730;28;20323;-69
2023/03/06 03:45:01;;;;;;;27.73;15.73;;;0.70;99.90;;;;;;5073393;28;20236;-70
2023/03/06 03:47:27;;;;;;;29.13;16.37;;;0.60;99.90;;;;;;5076781;28;20295;-70
2023/03/06 03:49:55;;;;;;;31.13;17.40;;;0.70;99.90;;;;;;5076544;28;20254;-69
2023/03/06 03:52:22;;;;;;;28.77;16.90;;;0.70;99.90;;;;;;5076907;28;20236;-69
2023/03/06 03:54:49;;;;;;;32.03;17.00;;;0.60;99.90;;;;;;5076697;28;20242;-69
2023/03/06 03:57:15;;;;;;;30.47;17.33;;;0.50;99.90;;;;;;5076609;28;20282;-69
2023/03/06 03:59:42;;;;;;;34.43;17.90;;;0.60;99.90;;;;;;5076683;28;20236;-70
2023/03/06 04:02:08;;;;;;;30.53;17.67;;;0.60;99.90;;;;;;5076365;28;20221;-69
2023/03/06 04:04:35;;;;;;;28.20;17.10;;;0.50;99.90;;;;;;5076639;28;20192;-69
2023/03/06 04:07:03;;;;;;;32.43;18.43;;;0.60;99.90;;;;;;5076464;28;20196;-71
2023/03/06 04:09:30;;;;;;;32.97;17.77;;;0.50;99.90;;;;;;5076493;28;20197;-69
2023/03/06 04:11:56;;;;;;;31.23;18.30;;;0.50;99.90;;;;;;5076407;28;20636;-69
2023/03/06 04:14:23;;;;;;;32.03;17.80;;;0.60;99.90;;;;;;5076297;28;20235;-70
2023/03/06 04:16:50;;;;;;;33.00;17.93;;;0.60;99.90;;;;;;5076189;28;20251;-70
2023/03/06 04:19:16;;;;;;;31.40;18.07;;;0.60;99.90;;;;;;5076403;28;20247;-70
2023/03/06 04:21:43;;;;;;;33.93;18.50;;;0.60;99.90;;;;;;5076214;28;20322;-70
2023/03/06 04:24:11;;;;;;;31.83;17.83;;;0.50;99.90;;;;;;5076127;28;20197;-69
2023/03/06 04:26:37;;;;;;;32.63;17.93;;;0.50;99.90;;;;;;5075912;28;20670;-70
2023/03/06 04:29:04;;;;;;;31.47;18.07;;;0.50;99.90;;;;;;5075984;28;20204;-69
2023/03/06 04:31:30;;;;;;;30.13;17.70;;;0.40;99.90;;;;;;5075862;28;20262;-70
2023/03/06 04:33:57;;;;;;;36.40;18.97;;;0.50;99.90;;;;;;5076054;28;20297;-69
2023/03/06 04:36:27;;;;;;;34.63;18.10;;;0.50;99.90;;;;;;5075979;28;20201;-70
2023/03/06 04:38:53;;;;;;;30.93;18.33;;;0.50;99.90;;;;;;5076079;28;20240;-69
2023/03/06 04:41:21;;;;;;;35.23;19.50;;;0.40;99.90;;;;;;5075723;28;20249;-71
2023/03/06 04:43:48;;;;;;;32.73;18.83;;;0.50;99.90;;;;;;5075819;28;20684;-69
2023/03/06 04:46:15;;;;;;;35.90;20.13;;;0.50;99.90;;;;;;5075831;28;20236;-69
2023/03/06 04:48:41;;;;;;;35.40;19.97;;;0.60;99.90;;;;;;5075828;28;20228;-69
2023/03/06 04:51:09;;;;;;;30.63;17.50;;;0.60;99.90;;;;;;5075635;28;20201;-69
2023/03/06 04:53:36;;;;;;;34.70;18.10;;;0.70;99.90;;;;;;5075573;28;20236;-70
2023/03/06 04:56:03;;;;;;;35.23;19.37;;;0.70;99.90;;;;;;5074897;28;20668;-68
2023/03/06 04:58:31;;;;;;;36.17;18.33;;;0.70;99.90;;;;;;5074618;28;20276;-70
2023/03/06 05:00:57;;;;;;;34.10;19.10;;;0.70;99.90;;;;;;5075477;28;20232;-69
2023/03/06 05:03:24;;;;;;;31.77;18.53;;;0.70;99.90;;;;;;5075499;28;20267;-70
2023/03/06 05:05:50;;;;;;;32.27;18.40;;;0.70;99.90;;;;;;5075462;28;20237;-70
2023/03/06 05:08:17;;;;;;;31.40;17.93;;;0.70;99.90;;;;;;5075112;28;20738;-70
2023/03/06 05:10:44;;;;;;;35.90;19.03;;;0.70;99.90;;;;;;5075106;28;20236;-70
2023/03/06 05:13:12;;;;;;;34.10;17.77;;;0.70;99.90;;;;;;5075595;28;20258;-71
2023/03/06 05:15:41;;;;;;;30.63;17.93;;;0.60;99.90;;;;;;5075336;28;20274;-69
2023/03/06 05:18:07;;;;;;;32.53;19.07;;;0.60;99.90;;;;;;5075234;28;20529;-70
2023/03/06 05:20:34;;;;;;;29.87;18.03;;;0.60;99.90;;;;;;5075126;28;20228;-69
2023/03/06 05:23:01;;;;;;;35.63;18.23;;;0.50;99.90;;;;;;5074972;28;20256;-69
2023/03/06 05:25:27;;;;;;;34.90;18.40;;;0.50;99.90;;;;;;5074891;28;20231;-69
2023/03/06 05:27:54;;;;;;;37.00;19.73;;;0.40;99.90;;;;;;5075131;28;20239;-70
2023/03/06 05:30:22;;;;;;;33.67;18.30;;;0.50;99.90;;;;;;5075066;28;20228;-69
2023/03/06 05:32:50;;;;;;;39.33;18.60;;;0.40;99.90;;;;;;5074836;28;20197;-70
2023/03/06 05:35:18;;;;;;;33.27;19.13;;;0.40;99.90;;;;;;5074748;28;20661;-70
2023/03/06 05:37:45;;;;;;;32.53;18.87;;;0.40;99.90;;;;;;5074796;28;20228;-70
2023/03/06 05:40:13;;;;;;;34.77;19.53;;;0.40;99.90;;;;;;5074476;28;20611;-70
2023/03/06 05:42:40;;;;;;;37.00;19.07;;;0.50;99.90;;;;;;5074758;28;20262;-70
2023/03/06 05:45:07;;;;;;;31.83;18.50;;;0.40;99.90;;;;;;5074681;28;20255;-70
2023/03/06 05:47:34;;;;;;;38.80;19.63;;;0.40;99.90;;;;;;5074436;28;20653;-71
2023/03/06 05:50:03;;;;;;;34.37;19.53;;;0.50;99.90;;;;;;5074424;28;20628;-70
2023/03/06 05:52:29;;;;;;;34.87;18.63;;;0.50;99.90;;;;;;5074296;28;20224;-70
2023/03/06 05:54:56;;;;;;;29.53;18.33;;;0.50;99.90;;;;;;5074622;28;20232;-70
2023/03/06 05:57:24;;;;;;;34.77;19.00;;;0.60;99.90;;;;;;5074439;28;20225;-71
2023/03/06 05:59:51;;;;;;;36.20;18.83;;;0.60;99.90;;;;;;5074387;28;20243;-70
2023/03/06 06:02:18;;;;;;;33.17;19.37;;;0.50;99.90;;;;;;5074081;28;20784;-70
2023/03/06 06:04:45;;;;;;;33.43;19.77;;;0.60;99.90;;;;;;5074091;28;20236;-70
2023/03/06 06:07:15;;;;;;;32.53;18.47;;;0.60;99.90;;;;;;5073844;28;20275;-70
2023/03/06 06:09:44;;;;;;;34.03;18.63;;;0.60;99.90;;;;;;5073954;28;20197;-69
2023/03/06 06:12:11;;;;;;;33.97;18.57;;;0.60;99.90;;;;;;5073968;28;20246;-69
2023/03/06 06:14:37;;;;;;;35.47;19.33;;;0.60;99.90;;;;;;5074100;28;20251;-69
2023/03/06 06:17:04;;;;;;;31.93;19.03;;;0.70;99.90;;;;;;5074023;28;20247;-70
2023/03/06 06:19:31;;;;;;;34.83;18.90;;;0.70;99.90;;;;;;5073823;28;20193;-70
2023/03/06 06:21:58;;;;;;;32.00;18.23;;;0.70;99.90;;;;;;5074119;28;20259;-70
2023/03/06 06:24:26;;;;;;;37.83;19.43;;;0.70;99.90;;;;;;5073896;28;20235;-69
2023/03/06 06:26:55;;;;;;;35.50;17.77;;;0.70;99.90;;;;;;5074107;28;20198;-69
2023/03/06 06:29:23;;;;;;;31.93;17.97;;;0.70;99.90;;;;;;5073687;28;20205;-70
2023/03/06 06:31:50;;;;;;;33.40;18.83;;;0.70;99.90;;;;;;5073575;28;20236;-70
2023/03/06 06:34:17;;;;;;;32.00;19.53;;;0.70;99.90;;;;;;5073445;28;20228;-71
2023/03/06 06:36:43;;;;;;;33.20;18.10;;;0.80;99.90;;;;;;5073546;28;20804;-70
2023/03/06 06:39:13;;;;;;;30.90;18.97;;;0.80;99.90;;;;;;5073648;28;20233;-69
2023/03/06 06:41:42;;;;;;;30.87;18.30;;;0.90;99.90;;;;;;5073279;28;20254;-70
2023/03/06 06:44:11;;;;;;;33.90;18.73;;;0.90;99.90;;;;;;5073331;28;20224;-70
2023/03/06 06:46:38;;;;;;;35.07;19.57;;;0.90;99.90;;;;;;5073057;28;20648;-70
2023/03/06 06:49:05;;;;;;;41.03;19.57;;;1.00;99.90;;;;;;5073145;28;20736;-70
2023/03/06 06:51:32;;;;;;;31.37;18.20;;;1.00;99.90;;;;;;5073068;28;20200;-70
2023/03/06 06:53:59;;;;;;;32.27;18.77;;;1.10;99.90;;;;;;5073076;28;20204;-70
2023/03/06 06:56:26;;;;;;;33.17;18.70;;;1.10;99.90;;;;;;5073007;28;20193;-69
2023/03/06 06:58:54;;;;;;;31.97;17.70;;;1.10;99.90;;;;;;5072940;28;20601;-69
2023/03/06 07:01:21;;;;;;;34.03;18.00;;;1.10;99.90;;;;;;5072679;28;20197;-69
2023/03/06 07:03:47;;;;;;;30.57;18.60;;;1.20;99.90;;;;;;5072999;28;20275;-70
2023/03/06 07:06:14;;;;;;;34.40;18.63;;;1.20;99.90;;;;;;5073012;28;20552;-69
2023/03/06 07:08:41;;;;;;;33.77;18.20;;;1.20;99.90;;;;;;5072651;28;20257;-69
2023/03/06 07:11:10;;;;;;;26.90;17.33;;;1.20;99.90;;;;;;5072715;28;20632;-69
2023/03/06 07:13:37;;;;;;;32.10;17.50;;;1.20;99.90;;;;;;5072678;28;20232;-69
2023/03/06 07:16:06;;;;;;;31.60;18.30;;;1.30;99.90;;;;;;5073010;28;20235;-70
2023/03/06 07:18:32;;;;;;;29.67;17.03;;;1.30;99.90;;;;;;5072921;28;20232;-70
2023/03/06 07:20:59;;;;;;;30.97;16.87;;;1.40;99.90;;;;;;5072216;28;20229;-70
2023/03/06 07:23:26;;;;;;;33.97;17.53;;;1.40;99.90;;;;;;5072755;28;20689;-69
2023/03/06 07:25:52;;;;;;;28.83;16.67;;;1.40;99.90;;;;;;5072722;28;20208;-69
2023/03/06 07:28:20;;;;;;;28.23;17.07;;;1.40;99.90;;;;;;5072601;28;20672;-71
2023/03/06 07:30:47;;;;;;;28.63;17.73;;;1.40;99.90;;;;;;5072693;28;20228;-71
2023/03/06 07:33:15;;;;;;;30.83;17.47;;;1.40;99.90;;;;;;5072782;28;20233;-69
2023/03/06 07:35:42;;;;;;;29.07;16.43;;;1.40;99.90;;;;;;5072672;28;20230;-68
2023/03/06 07:38:09;;;;;;;33.53;17.07;;;1.50;99.90;;;;;;5072616;28;20205;-69
2023/03/06 07:40:37;;;;;;;34.40;16.87;;;1.50;99.90;;;;;;5072524;28;20696;-69
2023/03/06 07:43:04;;;;;;;25.53;15.07;;;1.60;99.90;;;;;;5072371;28;20692;-69
2023/03/06 07:45:31;;;;;;;29.63;16.47;;;1.60;99.90;;;;;;5072705;28;20232;-69
2023/03/06 07:47:57;;;;;;;26.93;15.00;;;1.70;99.90;;;;;;5072674;28;20698;-69
2023/03/06 07:50:25;;;;;;;27.07;15.90;;;1.70;99.90;;;;;;5072528;28;20245;-70
2023/03/06 07:52:52;;;;;;;31.27;15.80;;;1.70;99.90;;;;;;5072354;28;20237;-71
2023/03/06 07:55:20;;;;;;;26.07;14.93;;;1.80;99.90;;;;;;5072355;28;20204;-70
2023/03/06 07:57:50;;;;;;;24.77;14.07;;;1.70;99.90;;;;;;5072160;28;20612;-74
2023/03/06 08:00:17;;;;;;;32.07;15.67;;;1.60;99.90;;;;;;5072356;28;20278;-69
2023/03/06 08:02:44;;;;;;;24.70;14.23;;;1.70;99.90;;;;;;5072237;28;20308;-70
2023/03/06 08:05:14;;;;;;;30.63;15.77;;;1.80;99.90;;;;;;5072526;28;20202;-69
2023/03/06 08:07:42;;;;;;;28.30;13.90;;;1.90;99.90;;;;;;5072178;28;20282;-70
2023/03/06 08:10:11;;;;;;;24.83;15.40;;;2.00;99.90;;;;;;5072042;28;20205;-70
2023/03/06 08:12:38;;;;;;;25.00;14.67;;;2.10;99.90;;;;;;5072354;28;20589;-70
2023/03/06 08:15:05;;;;;;;30.87;16.13;;;2.20;99.90;;;;;;5072384;28;20225;-70
2023/03/06 08:17:32;;;;;;;25.43;14.37;;;2.20;99.90;;;;;;5072163;28;20842;-71
2023/03/06 08:19:59;;;;;;;27.77;16.27;;;2.20;99.90;;;;;;5072085;28;20222;-70
2023/03/06 08:22:25;;;;;;;30.97;16.23;;;2.10;99.90;;;;;;5071867;28;20623;-70
2023/03/06 08:24:55;;;;;;;23.93;14.20;;;2.30;99.90;;;;;;5071917;28;20229;-70
2023/03/06 08:27:22;;;;;;;24.30;14.90;;;2.40;99.90;;;;;;5072392;28;20238;-70
2023/03/06 08:29:49;;;;;;;23.80;14.37;;;2.40;99.90;;;;;;5072133;28;20199;-68
2023/03/06 08:32:16;;;;;;;22.27;13.70;;;2.60;99.90;;;;;;5074553;28;20207;-70
2023/03/06 08:34:44;;;;;;;21.87;12.77;;;2.60;99.90;;;;;;5075693;28;20242;-69
2023/03/06 08:37:10;;;;;;;18.90;12.53;;;2.60;99.90;;;;;;5075368;28;20196;-69
2023/03/06 08:39:37;;;;;;;19.37;12.53;;;2.60;99.90;;;;;;5075857;28;20226;-69
2023/03/06 08:42:05;;;;;;;20.37;12.87;;;2.60;99.90;;;;;;5075699;28;20255;-69
2023/03/06 08:44:33;;;;;;;25.97;14.43;;;2.50;99.90;;;;;;5075404;28;20261;-69
2023/03/06 08:47:00;;;;;;;20.53;12.60;;;2.70;99.90;;;;;;5075310;28;20661;-69
2023/03/06 08:49:26;;;;;;;18.10;11.93;;;2.70;99.90;;;;;;5075471;28;20251;-69
2023/03/06 08:51:53;;;;;;;23.17;12.13;;;2.60;99.90;;;;;;5075451;28;20236;-69
2023/03/06 08:54:20;;;;;;;21.50;12.73;;;2.60;99.90;;;;;;5075505;28;20243;-70
2023/03/06 08:56:47;;;;;;;19.20;11.53;;;2.50;99.90;;;;;;5075395;28;20726;-71
2023/03/06 08:59:14;;;;;;;21.13;13.03;;;2.40;99.90;;;;;;5075293;28;20236;-69
2023/03/06 09:01:41;;;;;;;17.00;10.97;;;2.60;99.90;;;;;;5075074;28;20673;-70
2023/03/06 09:04:10;;;;;;;19.07;10.93;;;2.50;99.90;;;;;;5074870;28;20631;-70
2023/03/06 09:06:39;;;;;;;21.27;11.10;;;2.50;99.90;;;;;;5075228;28;20252;-70
2023/03/06 09:09:08;;;;;;;18.97;11.10;;;2.60;99.90;;;;;;5074797;28;20234;-71
2023/03/06 09:11:35;;;;;;;17.97;9.73;;;2.70;99.90;;;;;;5075129;28;20231;-69
2023/03/06 09:14:02;;;;;;;18.77;10.47;;;2.80;99.90;;;;;;5075247;28;20246;-69
2023/03/06 09:16:30;;;;;;;16.70;10.73;;;2.80;99.90;;;;;;5074827;28;20202;-70
2023/03/06 09:18:57;;;;;;;15.70;10.30;;;3.00;99.90;;;;;;5075038;28;20239;-70
2023/03/06 09:21:26;;;;;;;16.10;11.03;;;3.10;99.90;;;;;;5084595;28;20646;-69
2023/03/06 09:23:52;;;;;;;16.27;10.50;;;3.20;99.90;;;;;;5094444;28;20314;-70
2023/03/06 09:26:19;;;;;;;19.07;10.37;;;3.20;99.90;;;;;;5094889;28;20228;-71
2023/03/06 09:28:46;;;;;;;15.27;10.13;;;3.40;99.90;;;;;;5087830;28;20210;-71
2023/03/06 09:31:15;;;;;;;16.67;10.90;;;3.40;99.90;;;;;;5094709;28;20230;-70
2023/03/06 09:33:43;;;;;;;18.50;10.53;;;3.20;99.90;;;;;;5078032;28;20247;-70
2023/03/06 09:36:15;;;;;;;18.60;11.70;;;3.30;99.90;;;;;;5074475;28;20279;-70
2023/03/06 09:38:41;;;;;;;18.43;11.13;;;3.60;99.90;;;;;;5074323;28;20235;-71
2023/03/06 09:41:19;;;;;;;19.10;12.10;;;3.90;99.90;;;;;;5074290;28;20192;-70
2023/03/06 09:43:49;;;;;;;19.40;12.07;;;3.50;99.90;;;;;;5073457;28;20577;-68
2023/03/06 09:46:22;;;;;;;16.83;11.47;;;3.20;99.90;;;;;;5074501;28;20659;-69
2023/03/06 09:49:09;;;;;;;19.87;12.33;;;3.10;99.90;;;;;;5074274;28;20231;-69
2023/03/06 09:51:48;;;;;;;17.20;11.70;;;3.10;99.90;;;;;;5074159;28;20652;-70
2023/03/06 09:54:15;;;;;;;19.87;13.07;;;3.10;99.90;;;;;;5073754;28;20210;-69
2023/03/06 09:56:47;;;;;;;17.77;11.90;;;3.30;99.90;;;;;;5073923;28;20201;-69
2023/03/06 09:59:18;;;;;;;21.47;14.03;;;3.10;99.90;;;;;;5074154;28;20235;-71
2023/03/06 10:01:55;;;;;;;22.13;15.20;;;3.00;99.90;;;;;;5073616;28;20699;-70
2023/03/06 10:04:35;;;;;;;21.30;15.40;;;2.90;99.90;;;;;;5073434;28;20265;-71
2023/03/06 10:07:10;;;;;;;18.80;13.20;;;3.00;99.90;;;;;;5073934;28;20227;-71
2023/03/06 10:09:42;;;;;;;21.53;13.83;;;3.30;99.90;;;;;;5073952;28;20197;-71
2023/03/06 10:12:20;;;;;;;24.07;15.10;;;3.20;99.90;;;;;;5074002;28;20232;-70
2023/03/06 10:15:01;;;;;;;17.77;12.07;;;3.10;99.90;;;;;;5073764;28;20215;-71
2023/03/06 10:17:34;;;;;;;18.43;12.90;;;3.20;99.90;;;;;;5073822;28;20200;-71
2023/03/06 10:20:15;;;;;;;22.10;13.63;;;3.20;99.90;;;;;;5073820;28;20196;-71
2023/03/06 10:22:45;;;;;;;20.70;13.30;;;2.90;99.90;;;;;;5073710;28;20235;-70
2023/03/06 10:25:22;;;;;;;20.70;14.27;;;2.70;99.90;;;;;;5073617;28;20259;-70
2023/03/06 10:27:51;;;;;;;21.80;13.67;;;2.70;99.90;;;;;;5074105;28;20221;-78
2023/03/06 10:30:27;;;;;;;23.13;15.47;;;2.80;99.90;;;;;;5073344;28;20662;-72
2023/03/06 10:32:57;;;;;;;19.87;14.07;;;3.00;99.90;;;;;;5073605;28;20196;-72
2023/03/06 10:35:31;;;;;;;19.17;13.83;;;2.80;99.90;;;;;;5073400;28;20286;-72
2023/03/06 10:38:11;;;;;;;21.23;15.23;;;2.70;99.90;;;;;;5073209;28;20696;-69
2023/03/06 10:40:44;;;;;;;18.33;13.43;;;2.90;99.90;;;;;;5073349;28;20237;-69
2023/03/06 10:43:11;;;;;;;18.73;13.63;;;2.90;99.90;;;;;;5073269;28;20230;-68
2023/03/06 10:45:48;;;;;;;20.77;13.60;;;3.00;99.90;;;;;;5073166;28;20280;-71
2023/03/06 10:48:19;;;;;;;19.10;13.40;;;3.20;99.90;;;;;;5086818;28;20192;-70
2023/03/06 10:50:47;;;;;;;20.27;13.67;;;3.50;99.90;;;;;;5093812;28;20210;-71
2023/03/06 10:53:23;;;;;;;19.97;13.23;;;3.50;99.90;;;;;;5073505;28;20231;-71
2023/03/06 10:55:55;;;;;;;17.87;13.07;;;3.40;99.90;;;;;;5073106;28;20243;-71
2023/03/06 10:58:25;;;;;;;17.63;12.13;;;3.00;99.90;;;;;;5072931;28;20200;-72
2023/03/06 11:01:05;;;;;;;18.67;12.97;;;2.90;99.90;;;;;;5072926;28;20224;-71
2023/03/06 11:03:32;;;;;;;18.53;13.20;;;3.00;99.90;;;;;;5093344;28;20218;-70
2023/03/06 11:06:10;;;;;;;16.07;12.20;;;2.90;99.90;;;;;;5092765;28;20241;-70
2023/03/06 11:08:37;;;;;;;16.80;11.87;;;2.90;99.90;;;;;;5072947;28;20230;-71
2023/03/06 11:11:07;;;;;;;18.87;11.60;;;2.90;99.90;;;;;;5073769;28;20236;-70
2023/03/06 11:13:36;;;;;;;18.33;12.70;;;3.10;99.90;;;;;;5093167;28;20234;-70
2023/03/06 11:16:06;;;;;;;19.03;12.50;;;3.20;99.90;;;;;;5093158;28;20230;-70
2023/03/06 11:18:39;;;;;;;19.93;13.13;;;3.10;99.90;;;;;;5092885;28;20196;-70
2023/03/06 11:21:25;;;;;;;19.43;13.70;;;2.90;99.90;;;;;;5092919;28;20237;-70
2023/03/06 11:23:53;;;;;;;21.13;13.73;;;3.00;99.90;;;;;;5092654;28;20249;-70
2023/03/06 11:26:29;;;;;;;18.93;12.80;;;3.20;99.90;;;;;;5092966;28;20238;-70
2023/03/06 11:29:12;;;;;;;22.13;14.07;;;3.00;99.90;;;;;;5092619;28;20203;-71
2023/03/06 11:31:46;;;;;;;22.80;16.80;;;3.30;99.90;;;;;;5092482;28;20231;-70
2023/03/06 11:34:18;;;;;;;18.47;14.13;;;3.50;99.90;;;;;;5092722;28;20226;-70
2023/03/06 11:36:50;;;;;;;16.70;11.63;;;3.50;99.90;;;;;;5092697;28;20559;-69
2023/03/06 11:39:22;;;;;;;17.27;10.80;;;3.50;99.90;;;;;;5092756;28;20257;-70
2023/03/06 11:41:56;;;;;;;16.27;10.97;;;3.50;99.90;;;;;;5075444;28;20200;-70
2023/03/06 11:44:32;;;;;;;16.37;11.60;;;3.50;99.90;;;;;;5072338;28;20688;-70
2023/03/06 11:47:05;;;;;;;16.47;10.77;;;3.50;99.90;;;;;;5072384;28;20200;-70
2023/03/06 11:49:38;;;;;;;21.77;12.93;;;3.70;99.90;;;;;;5072611;28;20232;-69
2023/03/06 11:52:12;;;;;;;32.60;20.03;;;4.00;99.90;;;;;;5072625;28;20225;-72
2023/03/06 11:54:39;;;;;;;51.17;28.43;;;4.10;99.90;;;;;;5072453;28;20258;-71
2023/03/06 11:57:11;;;;;;;25.00;14.20;;;4.10;99.90;;;;;;5072358;28;20232;-71
2023/03/06 11:59:50;;;;;;;20.20;13.20;;;4.30;99.90;;;;;;5072570;28;20208;-71
2023/03/06 12:02:31;;;;;;;35.97;17.93;;;4.30;99.90;;;;;;5072422;28;20224;-71
2023/03/06 12:05:24;;;;;;;25.33;16.43;;;4.70;99.90;;;;;;5072246;28;20256;-73
2023/03/06 12:08:01;;;;;;;20.20;12.27;;;4.30;99.90;;;;;;5075944;28;20271;-71
2023/03/06 12:10:35;;;;;;;25.23;14.50;;;4.50;99.90;;;;;;5076296;28;20255;-71
2023/03/06 12:13:34;;;;;;;16.47;11.07;;;4.70;99.90;;;;;;5074081;28;20620;-71
2023/03/06 12:16:23;;;;;;;19.27;11.77;;;4.80;99.90;;;;;;5071738;28;20677;-70
2023/03/06 12:18:58;;;;;;;14.57;10.90;;;4.60;99.90;;;;;;5074411;28;20632;-70
2023/03/06 12:21:33;;;;;;;16.33;10.30;;;4.50;99.90;;;;;;5074329;28;20398;-69
2023/03/06 12:24:15;;;;;;;19.33;14.20;;;4.60;99.90;;;;;;5075557;28;20212;-70
2023/03/06 12:26:56;;;;;;;20.67;13.37;;;4.70;99.90;;;;;;5076282;28;20250;-69
2023/03/06 12:29:34;;;;;;;17.73;12.40;;;4.60;99.90;;;;;;5076203;28;20280;-70
2023/03/06 12:32:13;;;;;;;17.43;11.90;;;4.40;99.90;;;;;;5076029;28;20231;-73
2023/03/06 12:34:59;;;;;;;18.87;12.50;;;4.60;99.90;;;;;;5075732;28;20203;-70
2023/03/06 12:37:37;;;;;;;13.80;9.77;;;4.20;99.90;;;;;;5076040;28;20200;-71
2023/03/06 12:40:36;;;;;;;19.23;11.80;;;4.20;99.90;;;;;;5075751;28;20702;-71
2023/03/06 12:43:19;;;;;;;15.23;11.43;;;4.10;99.90;;;;;;5075456;28;20254;-71
2023/03/06 12:45:48;;;;;;;16.80;11.60;;;4.10;99.90;;;;;;5075640;28;20283;-70